Strona główna
METAR-TAF:

METAR-TAF

Lotnisko :

Port lotniczy Mitiga

Trypolis, Libia

Szerokość geograficzna: 32-54N, Długość geograficzna: 13-17E, wysokość: 11 m

METAR: brakujący

czas: 13:52 (11:52 UTC)

Prognoza

Raport powstał 6 godziny i 52 minut temu, godzina 05:00 UTC
Prognoza ważna od 16 godzina 06 UTC do 17 godzina 06 UTC
Wiatr 2 kt z kierunków zmiennych
Widzialność 10 km lub więcej
Brak chmur poniżej 1500 m i brak chmur cumulonimbus
Stopniowe zmiany
od 16 godzina 08 UTC do 16 godzina 10 UTC
Wiatr 10 kt od południowo-południowy wschód
Stopniowe zmiany
od 16 godzina 12 UTC do 16 godzina 14 UTC
Wiatr 2 kt z kierunków zmiennych
Stopniowe zmiany
od 16 godzina 18 UTC do 16 godzina 20 UTC
Wiatr 10 kt od południowy wschód

TAF: HLLM 160500Z 1606/1706 VRB02KT CAVOK BECMG 1608/1610 16010KT BECMG 1612/1614 VRB02KT BECMG 1618/1620 14010KT

Obserwacja i prognoza pogody dla ponad 4000 lotnisk (raport METAR i TAF).

Dostępne stacje oznaczono żółtymi i czerwonymi punktami na mapie.

Najedź kursorem aby zobaczyć nazwę stacji.

Kliknij aby zobaczyć obserwacje i prognozy pogody.

Aby zmienić mapę: kliknij na zielony przycisk z czarnym krzyżykiem, aby powiększyć; na zielony przycisk z myślnikiem, aby pomniejszyć; na zielone strzałki, aby przejść do map sąsiednich.


METAR-TAF: